sensor_id;sensor_type;location;lat;lon;timestamp;P1;durP1;ratioP1;P2;durP2;ratioP2
15240;SDS011;7723;52.170;9.978;2022-12-07T00:00:54;27.10;;;14.07;;
15240;SDS011;7723;52.170;9.978;2022-12-07T00:03:21;27.33;;;13.87;;
15240;SDS011;7723;52.170;9.978;2022-12-07T00:05:49;24.13;;;12.23;;
15240;SDS011;7723;52.170;9.978;2022-12-07T00:08:16;25.80;;;13.90;;
15240;SDS011;7723;52.170;9.978;2022-12-07T00:10:44;25.60;;;14.17;;
15240;SDS011;7723;52.170;9.978;2022-12-07T00:13:12;25.93;;;13.73;;
15240;SDS011;7723;52.170;9.978;2022-12-07T00:15:39;27.63;;;13.60;;
15240;SDS011;7723;52.170;9.978;2022-12-07T00:18:06;25.87;;;12.40;;
15240;SDS011;7723;52.170;9.978;2022-12-07T00:20:34;23.07;;;13.00;;
15240;SDS011;7723;52.170;9.978;2022-12-07T00:23:01;27.40;;;14.63;;
15240;SDS011;7723;52.170;9.978;2022-12-07T00:25:29;24.83;;;12.50;;
15240;SDS011;7723;52.170;9.978;2022-12-07T00:27:58;26.13;;;15.63;;
15240;SDS011;7723;52.170;9.978;2022-12-07T00:30:26;28.07;;;15.37;;
15240;SDS011;7723;52.170;9.978;2022-12-07T00:32:53;34.23;;;19.10;;
15240;SDS011;7723;52.170;9.978;2022-12-07T00:35:20;26.73;;;14.97;;
15240;SDS011;7723;52.170;9.978;2022-12-07T00:37:47;25.53;;;14.63;;
15240;SDS011;7723;52.170;9.978;2022-12-07T00:40:14;24.10;;;13.43;;
15240;SDS011;7723;52.170;9.978;2022-12-07T00:42:42;24.50;;;12.67;;
15240;SDS011;7723;52.170;9.978;2022-12-07T00:45:11;25.07;;;12.73;;
15240;SDS011;7723;52.170;9.978;2022-12-07T00:47:38;24.40;;;13.43;;
15240;SDS011;7723;52.170;9.978;2022-12-07T00:50:05;21.97;;;12.37;;
15240;SDS011;7723;52.170;9.978;2022-12-07T00:52:33;20.97;;;11.80;;
15240;SDS011;7723;52.170;9.978;2022-12-07T00:55:00;24.70;;;12.07;;
15240;SDS011;7723;52.170;9.978;2022-12-07T00:57:27;22.50;;;12.23;;
15240;SDS011;7723;52.170;9.978;2022-12-07T00:59:56;19.10;;;10.93;;
15240;SDS011;7723;52.170;9.978;2022-12-07T01:02:26;17.00;;;10.73;;
15240;SDS011;7723;52.170;9.978;2022-12-07T01:04:54;18.30;;;10.37;;
15240;SDS011;7723;52.170;9.978;2022-12-07T01:07:21;15.40;;;9.83;;
15240;SDS011;7723;52.170;9.978;2022-12-07T01:09:48;18.57;;;10.70;;
15240;SDS011;7723;52.170;9.978;2022-12-07T01:12:15;16.80;;;10.37;;
15240;SDS011;7723;52.170;9.978;2022-12-07T01:14:42;17.53;;;11.47;;
15240;SDS011;7723;52.170;9.978;2022-12-07T01:17:10;18.13;;;10.03;;
15240;SDS011;7723;52.170;9.978;2022-12-07T01:19:38;17.90;;;10.67;;
15240;SDS011;7723;52.170;9.978;2022-12-07T01:22:05;17.10;;;10.10;;
15240;SDS011;7723;52.170;9.978;2022-12-07T01:24:33;17.90;;;10.13;;
15240;SDS011;7723;52.170;9.978;2022-12-07T01:27:00;16.70;;;10.37;;
15240;SDS011;7723;52.170;9.978;2022-12-07T01:29:27;18.07;;;10.30;;
15240;SDS011;7723;52.170;9.978;2022-12-07T01:31:54;16.27;;;10.23;;
15240;SDS011;7723;52.170;9.978;2022-12-07T01:34:22;15.53;;;8.93;;
15240;SDS011;7723;52.170;9.978;2022-12-07T01:36:50;16.50;;;9.30;;
15240;SDS011;7723;52.170;9.978;2022-12-07T01:39:17;16.87;;;9.67;;
15240;SDS011;7723;52.170;9.978;2022-12-07T01:41:45;16.67;;;9.70;;
15240;SDS011;7723;52.170;9.978;2022-12-07T01:44:13;16.63;;;10.40;;
15240;SDS011;7723;52.170;9.978;2022-12-07T01:46:43;14.23;;;9.50;;
15240;SDS011;7723;52.170;9.978;2022-12-07T01:49:12;15.37;;;9.60;;
15240;SDS011;7723;52.170;9.978;2022-12-07T01:51:44;15.70;;;9.60;;
15240;SDS011;7723;52.170;9.978;2022-12-07T01:54:15;16.43;;;9.87;;
15240;SDS011;7723;52.170;9.978;2022-12-07T01:56:45;16.77;;;10.50;;
15240;SDS011;7723;52.170;9.978;2022-12-07T01:59:18;15.33;;;9.90;;
15240;SDS011;7723;52.170;9.978;2022-12-07T02:01:47;15.60;;;10.17;;
15240;SDS011;7723;52.170;9.978;2022-12-07T02:04:15;16.67;;;9.93;;
15240;SDS011;7723;52.170;9.978;2022-12-07T02:06:42;16.77;;;10.53;;
15240;SDS011;7723;52.170;9.978;2022-12-07T02:09:12;17.43;;;10.50;;
15240;SDS011;7723;52.170;9.978;2022-12-07T02:11:41;17.60;;;10.77;;
15240;SDS011;7723;52.170;9.978;2022-12-07T02:14:08;20.20;;;11.03;;
15240;SDS011;7723;52.170;9.978;2022-12-07T02:16:38;20.47;;;10.57;;
15240;SDS011;7723;52.170;9.978;2022-12-07T02:19:27;17.87;;;10.40;;
15240;SDS011;7723;52.170;9.978;2022-12-07T02:22:21;18.13;;;9.63;;
15240;SDS011;7723;52.170;9.978;2022-12-07T02:25:12;17.30;;;10.60;;
15240;SDS011;7723;52.170;9.978;2022-12-07T02:27:50;17.87;;;10.57;;
15240;SDS011;7723;52.170;9.978;2022-12-07T02:30:24;17.40;;;11.13;;
15240;SDS011;7723;52.170;9.978;2022-12-07T02:32:58;16.30;;;9.80;;
15240;SDS011;7723;52.170;9.978;2022-12-07T02:35:30;18.30;;;11.03;;
15240;SDS011;7723;52.170;9.978;2022-12-07T02:38:02;17.13;;;10.63;;
15240;SDS011;7723;52.170;9.978;2022-12-07T02:40:35;17.97;;;11.00;;
15240;SDS011;7723;52.170;9.978;2022-12-07T02:43:07;17.27;;;10.27;;
15240;SDS011;7723;52.170;9.978;2022-12-07T02:45:40;19.17;;;10.70;;
15240;SDS011;7723;52.170;9.978;2022-12-07T02:48:11;21.57;;;11.63;;
15240;SDS011;7723;52.170;9.978;2022-12-07T02:50:43;19.43;;;10.87;;
15240;SDS011;7723;52.170;9.978;2022-12-07T02:55:57;20.60;;;10.93;;
15240;SDS011;7723;52.170;9.978;2022-12-07T02:58:29;21.03;;;11.43;;
15240;SDS011;7723;52.170;9.978;2022-12-07T03:01:08;18.37;;;10.63;;
15240;SDS011;7723;52.170;9.978;2022-12-07T03:03:45;19.87;;;11.63;;
15240;SDS011;7723;52.170;9.978;2022-12-07T03:06:22;23.90;;;12.10;;
15240;SDS011;7723;52.170;9.978;2022-12-07T03:08:57;19.53;;;11.77;;
15240;SDS011;7723;52.170;9.978;2022-12-07T03:11:33;19.97;;;11.27;;
15240;SDS011;7723;52.170;9.978;2022-12-07T03:14:09;21.83;;;11.53;;
15240;SDS011;7723;52.170;9.978;2022-12-07T03:16:43;22.57;;;12.23;;
15240;SDS011;7723;52.170;9.978;2022-12-07T03:19:15;23.47;;;12.70;;
15240;SDS011;7723;52.170;9.978;2022-12-07T03:21:46;20.83;;;11.30;;
15240;SDS011;7723;52.170;9.978;2022-12-07T03:24:18;21.03;;;11.40;;
15240;SDS011;7723;52.170;9.978;2022-12-07T03:26:49;19.20;;;12.13;;
15240;SDS011;7723;52.170;9.978;2022-12-07T03:29:22;22.70;;;11.93;;
15240;SDS011;7723;52.170;9.978;2022-12-07T03:31:55;20.60;;;11.17;;
15240;SDS011;7723;52.170;9.978;2022-12-07T03:34:29;22.37;;;11.73;;
15240;SDS011;7723;52.170;9.978;2022-12-07T03:37:00;19.53;;;10.57;;
15240;SDS011;7723;52.170;9.978;2022-12-07T03:39:33;18.97;;;9.43;;
15240;SDS011;7723;52.170;9.978;2022-12-07T03:42:05;19.27;;;11.93;;
15240;SDS011;7723;52.170;9.978;2022-12-07T03:44:34;17.93;;;10.37;;
15240;SDS011;7723;52.170;9.978;2022-12-07T03:47:04;14.70;;;9.50;;
15240;SDS011;7723;52.170;9.978;2022-12-07T03:49:39;19.77;;;10.43;;
15240;SDS011;7723;52.170;9.978;2022-12-07T03:52:12;17.03;;;9.30;;
15240;SDS011;7723;52.170;9.978;2022-12-07T03:54:49;16.50;;;8.57;;
15240;SDS011;7723;52.170;9.978;2022-12-07T03:57:21;19.30;;;9.67;;
15240;SDS011;7723;52.170;9.978;2022-12-07T03:59:50;17.83;;;9.10;;
15240;SDS011;7723;52.170;9.978;2022-12-07T04:02:21;15.80;;;8.73;;
15240;SDS011;7723;52.170;9.978;2022-12-07T04:04:50;15.03;;;9.13;;
15240;SDS011;7723;52.170;9.978;2022-12-07T04:07:17;22.40;;;9.13;;
15240;SDS011;7723;52.170;9.978;2022-12-07T04:09:44;16.30;;;9.27;;
15240;SDS011;7723;52.170;9.978;2022-12-07T04:12:12;16.77;;;9.10;;
15240;SDS011;7723;52.170;9.978;2022-12-07T04:14:39;15.13;;;8.93;;
15240;SDS011;7723;52.170;9.978;2022-12-07T04:17:06;17.00;;;9.40;;
15240;SDS011;7723;52.170;9.978;2022-12-07T04:19:35;18.30;;;8.93;;
15240;SDS011;7723;52.170;9.978;2022-12-07T04:22:02;15.40;;;9.60;;
15240;SDS011;7723;52.170;9.978;2022-12-07T04:24:30;16.50;;;9.17;;
15240;SDS011;7723;52.170;9.978;2022-12-07T04:26:58;18.27;;;9.20;;
15240;SDS011;7723;52.170;9.978;2022-12-07T04:29:26;15.87;;;8.60;;
15240;SDS011;7723;52.170;9.978;2022-12-07T04:31:54;17.07;;;8.73;;
15240;SDS011;7723;52.170;9.978;2022-12-07T04:34:21;19.07;;;10.07;;
15240;SDS011;7723;52.170;9.978;2022-12-07T04:36:50;18.10;;;9.90;;
15240;SDS011;7723;52.170;9.978;2022-12-07T04:39:18;15.93;;;8.60;;
15240;SDS011;7723;52.170;9.978;2022-12-07T04:41:47;17.57;;;9.10;;
15240;SDS011;7723;52.170;9.978;2022-12-07T04:44:14;16.83;;;8.97;;
15240;SDS011;7723;52.170;9.978;2022-12-07T04:46:42;18.00;;;8.70;;
15240;SDS011;7723;52.170;9.978;2022-12-07T04:49:10;17.70;;;9.00;;
15240;SDS011;7723;52.170;9.978;2022-12-07T04:51:39;23.70;;;9.63;;
15240;SDS011;7723;52.170;9.978;2022-12-07T04:54:08;17.00;;;8.73;;
15240;SDS011;7723;52.170;9.978;2022-12-07T04:56:35;18.97;;;8.87;;
15240;SDS011;7723;52.170;9.978;2022-12-07T04:59:03;13.33;;;8.77;;
15240;SDS011;7723;52.170;9.978;2022-12-07T05:01:31;16.77;;;8.77;;
15240;SDS011;7723;52.170;9.978;2022-12-07T05:03:58;16.13;;;8.43;;
15240;SDS011;7723;52.170;9.978;2022-12-07T05:06:26;14.83;;;8.37;;
15240;SDS011;7723;52.170;9.978;2022-12-07T05:08:53;17.77;;;8.70;;
15240;SDS011;7723;52.170;9.978;2022-12-07T05:11:22;18.50;;;8.80;;
15240;SDS011;7723;52.170;9.978;2022-12-07T05:14:05;13.23;;;8.37;;
15240;SDS011;7723;52.170;9.978;2022-12-07T05:16:35;15.50;;;8.10;;
15240;SDS011;7723;52.170;9.978;2022-12-07T05:19:03;13.27;;;7.57;;
15240;SDS011;7723;52.170;9.978;2022-12-07T05:21:31;15.20;;;8.03;;
15240;SDS011;7723;52.170;9.978;2022-12-07T05:23:58;14.87;;;6.80;;
15240;SDS011;7723;52.170;9.978;2022-12-07T05:26:27;15.17;;;8.13;;
15240;SDS011;7723;52.170;9.978;2022-12-07T05:28:55;14.07;;;7.50;;
15240;SDS011;7723;52.170;9.978;2022-12-07T05:31:23;14.63;;;6.77;;
15240;SDS011;7723;52.170;9.978;2022-12-07T05:33:51;23.13;;;8.37;;
15240;SDS011;7723;52.170;9.978;2022-12-07T05:36:19;14.93;;;7.70;;
15240;SDS011;7723;52.170;9.978;2022-12-07T05:38:47;15.17;;;6.80;;
15240;SDS011;7723;52.170;9.978;2022-12-07T05:41:15;16.33;;;7.63;;
15240;SDS011;7723;52.170;9.978;2022-12-07T05:44:02;15.13;;;7.90;;
15240;SDS011;7723;52.170;9.978;2022-12-07T05:46:30;15.20;;;7.97;;
15240;SDS011;7723;52.170;9.978;2022-12-07T05:48:57;13.67;;;6.80;;
15240;SDS011;7723;52.170;9.978;2022-12-07T05:51:24;13.40;;;7.00;;
15240;SDS011;7723;52.170;9.978;2022-12-07T05:53:52;14.80;;;6.67;;
15240;SDS011;7723;52.170;9.978;2022-12-07T05:56:19;12.57;;;7.23;;
15240;SDS011;7723;52.170;9.978;2022-12-07T05:58:46;13.27;;;7.20;;
15240;SDS011;7723;52.170;9.978;2022-12-07T06:01:32;11.73;;;6.80;;
15240;SDS011;7723;52.170;9.978;2022-12-07T06:03:59;13.20;;;7.67;;
15240;SDS011;7723;52.170;9.978;2022-12-07T06:06:26;11.97;;;6.20;;
15240;SDS011;7723;52.170;9.978;2022-12-07T06:08:54;13.90;;;6.97;;
15240;SDS011;7723;52.170;9.978;2022-12-07T06:11:21;13.27;;;6.80;;
15240;SDS011;7723;52.170;9.978;2022-12-07T06:14:05;13.00;;;6.27;;
15240;SDS011;7723;52.170;9.978;2022-12-07T06:16:34;13.77;;;6.50;;
15240;SDS011;7723;52.170;9.978;2022-12-07T06:19:01;14.97;;;6.73;;
15240;SDS011;7723;52.170;9.978;2022-12-07T06:21:28;13.40;;;6.23;;
15240;SDS011;7723;52.170;9.978;2022-12-07T06:23:55;14.17;;;6.60;;
15240;SDS011;7723;52.170;9.978;2022-12-07T06:26:23;12.23;;;6.37;;
15240;SDS011;7723;52.170;9.978;2022-12-07T06:28:50;17.70;;;6.50;;
15240;SDS011;7723;52.170;9.978;2022-12-07T06:31:17;13.67;;;6.80;;
15240;SDS011;7723;52.170;9.978;2022-12-07T06:33:46;11.93;;;5.97;;
15240;SDS011;7723;52.170;9.978;2022-12-07T06:36:13;17.13;;;7.47;;
15240;SDS011;7723;52.170;9.978;2022-12-07T06:38:40;11.83;;;6.83;;
15240;SDS011;7723;52.170;9.978;2022-12-07T06:41:07;13.60;;;6.30;;
15240;SDS011;7723;52.170;9.978;2022-12-07T06:43:35;11.47;;;5.83;;
15240;SDS011;7723;52.170;9.978;2022-12-07T06:46:02;12.20;;;6.30;;
15240;SDS011;7723;52.170;9.978;2022-12-07T06:48:30;13.70;;;5.60;;
15240;SDS011;7723;52.170;9.978;2022-12-07T06:50:58;10.40;;;5.70;;
15240;SDS011;7723;52.170;9.978;2022-12-07T06:53:26;11.17;;;5.80;;
15240;SDS011;7723;52.170;9.978;2022-12-07T06:55:53;10.73;;;5.47;;
15240;SDS011;7723;52.170;9.978;2022-12-07T06:58:20;11.70;;;4.60;;
15240;SDS011;7723;52.170;9.978;2022-12-07T07:00:48;14.73;;;6.60;;
15240;SDS011;7723;52.170;9.978;2022-12-07T07:03:15;8.70;;;5.37;;
15240;SDS011;7723;52.170;9.978;2022-12-07T07:05:43;10.63;;;4.87;;
15240;SDS011;7723;52.170;9.978;2022-12-07T07:08:12;10.33;;;5.03;;
15240;SDS011;7723;52.170;9.978;2022-12-07T07:10:40;8.90;;;4.97;;
15240;SDS011;7723;52.170;9.978;2022-12-07T07:13:08;12.60;;;5.13;;
15240;SDS011;7723;52.170;9.978;2022-12-07T07:15:37;8.33;;;5.23;;
15240;SDS011;7723;52.170;9.978;2022-12-07T07:18:04;9.57;;;5.23;;
15240;SDS011;7723;52.170;9.978;2022-12-07T07:20:31;9.10;;;4.70;;
15240;SDS011;7723;52.170;9.978;2022-12-07T07:22:58;10.70;;;5.13;;
15240;SDS011;7723;52.170;9.978;2022-12-07T07:25:27;9.93;;;5.43;;
15240;SDS011;7723;52.170;9.978;2022-12-07T07:27:55;11.30;;;5.07;;
15240;SDS011;7723;52.170;9.978;2022-12-07T07:30:22;10.80;;;5.07;;
15240;SDS011;7723;52.170;9.978;2022-12-07T07:32:49;11.13;;;5.17;;
15240;SDS011;7723;52.170;9.978;2022-12-07T07:35:16;10.93;;;5.23;;
15240;SDS011;7723;52.170;9.978;2022-12-07T07:37:44;11.02;;;4.90;;
15240;SDS011;7723;52.170;9.978;2022-12-07T07:40:11;9.73;;;5.03;;
15240;SDS011;7723;52.170;9.978;2022-12-07T07:42:40;7.00;;;4.30;;
15240;SDS011;7723;52.170;9.978;2022-12-07T07:45:08;7.63;;;5.10;;
15240;SDS011;7723;52.170;9.978;2022-12-07T07:47:35;8.80;;;4.47;;
15240;SDS011;7723;52.170;9.978;2022-12-07T07:50:03;10.27;;;4.40;;
15240;SDS011;7723;52.170;9.978;2022-12-07T07:52:31;5.88;;;4.00;;
15240;SDS011;7723;52.170;9.978;2022-12-07T07:54:58;5.27;;;3.87;;
15240;SDS011;7723;52.170;9.978;2022-12-07T07:57:25;4.60;;;3.80;;
15240;SDS011;7723;52.170;9.978;2022-12-07T07:59:54;8.97;;;4.40;;
15240;SDS011;7723;52.170;9.978;2022-12-07T08:02:22;3.93;;;3.10;;
15240;SDS011;7723;52.170;9.978;2022-12-07T08:04:49;6.50;;;3.60;;
15240;SDS011;7723;52.170;9.978;2022-12-07T08:07:16;6.60;;;4.07;;
15240;SDS011;7723;52.170;9.978;2022-12-07T08:09:44;5.77;;;3.50;;
15240;SDS011;7723;52.170;9.978;2022-12-07T08:12:11;7.00;;;4.47;;
15240;SDS011;7723;52.170;9.978;2022-12-07T08:14:38;7.73;;;4.70;;
15240;SDS011;7723;52.170;9.978;2022-12-07T08:17:07;5.63;;;3.73;;
15240;SDS011;7723;52.170;9.978;2022-12-07T08:19:35;6.90;;;4.13;;
15240;SDS011;7723;52.170;9.978;2022-12-07T08:22:02;7.07;;;3.60;;
15240;SDS011;7723;52.170;9.978;2022-12-07T08:24:29;7.83;;;3.50;;
15240;SDS011;7723;52.170;9.978;2022-12-07T08:26:59;13.03;;;3.43;;
15240;SDS011;7723;52.170;9.978;2022-12-07T08:29:26;5.00;;;2.80;;
15240;SDS011;7723;52.170;9.978;2022-12-07T08:31:53;7.53;;;3.60;;
15240;SDS011;7723;52.170;9.978;2022-12-07T08:34:22;5.10;;;3.00;;
15240;SDS011;7723;52.170;9.978;2022-12-07T08:36:49;5.50;;;3.00;;
15240;SDS011;7723;52.170;9.978;2022-12-07T08:39:16;7.20;;;3.33;;
15240;SDS011;7723;52.170;9.978;2022-12-07T08:41:44;5.17;;;2.87;;
15240;SDS011;7723;52.170;9.978;2022-12-07T08:44:11;4.87;;;2.80;;
15240;SDS011;7723;52.170;9.978;2022-12-07T08:46:38;4.87;;;2.57;;
15240;SDS011;7723;52.170;9.978;2022-12-07T08:49:09;4.83;;;2.77;;
15240;SDS011;7723;52.170;9.978;2022-12-07T08:51:39;6.47;;;3.13;;
15240;SDS011;7723;52.170;9.978;2022-12-07T08:54:09;4.97;;;2.75;;
15240;SDS011;7723;52.170;9.978;2022-12-07T08:56:39;6.20;;;3.22;;
15240;SDS011;7723;52.170;9.978;2022-12-07T08:59:07;7.68;;;2.90;;
15240;SDS011;7723;52.170;9.978;2022-12-07T09:01:34;4.43;;;3.00;;
15240;SDS011;7723;52.170;9.978;2022-12-07T09:04:01;4.68;;;2.53;;
15240;SDS011;7723;52.170;9.978;2022-12-07T09:06:29;4.93;;;2.75;;
15240;SDS011;7723;52.170;9.978;2022-12-07T09:08:58;3.20;;;2.42;;
15240;SDS011;7723;52.170;9.978;2022-12-07T09:11:27;9.40;;;3.00;;
15240;SDS011;7723;52.170;9.978;2022-12-07T09:13:55;4.28;;;2.25;;
15240;SDS011;7723;52.170;9.978;2022-12-07T09:16:23;4.57;;;2.57;;
15240;SDS011;7723;52.170;9.978;2022-12-07T09:18:50;5.68;;;2.85;;
15240;SDS011;7723;52.170;9.978;2022-12-07T09:21:17;4.05;;;3.05;;
15240;SDS011;7723;52.170;9.978;2022-12-07T09:23:44;5.00;;;2.55;;
15240;SDS011;7723;52.170;9.978;2022-12-07T09:26:13;5.28;;;2.75;;
15240;SDS011;7723;52.170;9.978;2022-12-07T09:28:40;4.45;;;2.63;;
15240;SDS011;7723;52.170;9.978;2022-12-07T09:31:07;4.97;;;2.80;;
15240;SDS011;7723;52.170;9.978;2022-12-07T09:33:35;4.32;;;2.53;;
15240;SDS011;7723;52.170;9.978;2022-12-07T09:36:03;6.07;;;2.97;;
15240;SDS011;7723;52.170;9.978;2022-12-07T09:38:31;4.77;;;2.37;;
15240;SDS011;7723;52.170;9.978;2022-12-07T09:40:58;4.07;;;2.47;;
15240;SDS011;7723;52.170;9.978;2022-12-07T09:43:33;5.45;;;2.83;;
15240;SDS011;7723;52.170;9.978;2022-12-07T09:46:03;2.60;;;1.88;;
15240;SDS011;7723;52.170;9.978;2022-12-07T09:48:32;6.88;;;2.28;;
15240;SDS011;7723;52.170;9.978;2022-12-07T09:51:02;4.40;;;2.40;;
15240;SDS011;7723;52.170;9.978;2022-12-07T09:53:39;4.67;;;2.23;;
15240;SDS011;7723;52.170;9.978;2022-12-07T09:56:08;3.40;;;2.40;;
15240;SDS011;7723;52.170;9.978;2022-12-07T09:58:41;4.03;;;2.20;;
15240;SDS011;7723;52.170;9.978;2022-12-07T10:01:11;3.42;;;2.47;;
15240;SDS011;7723;52.170;9.978;2022-12-07T10:03:42;3.50;;;2.33;;
15240;SDS011;7723;52.170;9.978;2022-12-07T10:06:15;4.27;;;1.70;;
15240;SDS011;7723;52.170;9.978;2022-12-07T10:08:42;2.05;;;1.73;;
15240;SDS011;7723;52.170;9.978;2022-12-07T10:11:10;2.88;;;1.50;;
15240;SDS011;7723;52.170;9.978;2022-12-07T10:13:41;12.73;;;2.10;;
15240;SDS011;7723;52.170;9.978;2022-12-07T10:16:26;5.43;;;1.88;;
15240;SDS011;7723;52.170;9.978;2022-12-07T10:19:18;6.90;;;5.07;;
15240;SDS011;7723;52.170;9.978;2022-12-07T10:22:02;3.80;;;2.70;;
15240;SDS011;7723;52.170;9.978;2022-12-07T10:24:31;4.90;;;3.75;;
15240;SDS011;7723;52.170;9.978;2022-12-07T10:26:59;4.03;;;2.92;;
15240;SDS011;7723;52.170;9.978;2022-12-07T10:29:29;3.70;;;2.53;;
15240;SDS011;7723;52.170;9.978;2022-12-07T10:31:59;4.43;;;2.00;;
15240;SDS011;7723;52.170;9.978;2022-12-07T10:34:28;4.05;;;1.73;;
15240;SDS011;7723;52.170;9.978;2022-12-07T10:37:15;4.30;;;1.80;;
15240;SDS011;7723;52.170;9.978;2022-12-07T10:39:45;6.40;;;1.88;;
15240;SDS011;7723;52.170;9.978;2022-12-07T10:42:17;3.35;;;1.35;;
15240;SDS011;7723;52.170;9.978;2022-12-07T10:44:48;4.75;;;1.70;;
15240;SDS011;7723;52.170;9.978;2022-12-07T10:47:21;1.40;;;1.30;;
15240;SDS011;7723;52.170;9.978;2022-12-07T10:50:10;3.00;;;1.70;;
15240;SDS011;7723;52.170;9.978;2022-12-07T10:52:56;3.78;;;1.50;;
15240;SDS011;7723;52.170;9.978;2022-12-07T10:55:40;2.15;;;1.40;;
15240;SDS011;7723;52.170;9.978;2022-12-07T10:58:19;2.03;;;1.60;;
15240;SDS011;7723;52.170;9.978;2022-12-07T11:01:01;2.40;;;1.13;;
15240;SDS011;7723;52.170;9.978;2022-12-07T11:03:42;2.20;;;1.33;;
15240;SDS011;7723;52.170;9.978;2022-12-07T11:06:22;2.47;;;1.40;;
15240;SDS011;7723;52.170;9.978;2022-12-07T11:08:59;3.83;;;2.22;;
15240;SDS011;7723;52.170;9.978;2022-12-07T11:11:38;2.42;;;1.65;;
15240;SDS011;7723;52.170;9.978;2022-12-07T11:14:15;4.03;;;1.83;;
15240;SDS011;7723;52.170;9.978;2022-12-07T11:16:52;4.15;;;1.73;;
15240;SDS011;7723;52.170;9.978;2022-12-07T11:19:29;4.20;;;2.08;;
15240;SDS011;7723;52.170;9.978;2022-12-07T11:22:08;2.95;;;1.77;;
15240;SDS011;7723;52.170;9.978;2022-12-07T11:24:45;3.42;;;1.73;;
15240;SDS011;7723;52.170;9.978;2022-12-07T11:27:22;5.53;;;1.93;;
15240;SDS011;7723;52.170;9.978;2022-12-07T11:29:59;2.70;;;1.80;;
15240;SDS011;7723;52.170;9.978;2022-12-07T11:32:44;4.78;;;2.05;;
15240;SDS011;7723;52.170;9.978;2022-12-07T11:35:25;5.72;;;2.67;;
15240;SDS011;7723;52.170;9.978;2022-12-07T11:38:07;7.47;;;2.00;;
15240;SDS011;7723;52.170;9.978;2022-12-07T11:40:37;4.95;;;1.92;;
15240;SDS011;7723;52.170;9.978;2022-12-07T11:43:11;4.03;;;2.30;;
15240;SDS011;7723;52.170;9.978;2022-12-07T11:45:44;5.05;;;2.70;;
15240;SDS011;7723;52.170;9.978;2022-12-07T11:48:22;3.97;;;2.17;;
15240;SDS011;7723;52.170;9.978;2022-12-07T11:50:59;7.13;;;2.67;;
15240;SDS011;7723;52.170;9.978;2022-12-07T11:53:30;5.72;;;2.50;;
15240;SDS011;7723;52.170;9.978;2022-12-07T11:56:05;6.05;;;2.95;;
15240;SDS011;7723;52.170;9.978;2022-12-07T11:58:39;5.22;;;3.00;;
15240;SDS011;7723;52.170;9.978;2022-12-07T12:01:14;2.92;;;2.50;;
15240;SDS011;7723;52.170;9.978;2022-12-07T12:03:55;5.47;;;2.95;;
15240;SDS011;7723;52.170;9.978;2022-12-07T12:06:26;4.53;;;2.08;;
15240;SDS011;7723;52.170;9.978;2022-12-07T12:08:54;5.75;;;2.17;;
15240;SDS011;7723;52.170;9.978;2022-12-07T12:11:32;5.75;;;2.50;;
15240;SDS011;7723;52.170;9.978;2022-12-07T12:14:17;4.88;;;2.20;;
15240;SDS011;7723;52.170;9.978;2022-12-07T12:17:03;4.45;;;2.40;;
15240;SDS011;7723;52.170;9.978;2022-12-07T12:19:57;11.02;;;2.60;;
15240;SDS011;7723;52.170;9.978;2022-12-07T12:22:30;4.63;;;2.55;;
15240;SDS011;7723;52.170;9.978;2022-12-07T12:25:03;6.22;;;1.40;;
15240;SDS011;7723;52.170;9.978;2022-12-07T12:27:33;1.67;;;1.30;;
15240;SDS011;7723;52.170;9.978;2022-12-07T12:30:03;3.33;;;1.40;;
15240;SDS011;7723;52.170;9.978;2022-12-07T12:32:35;7.60;;;2.53;;
15240;SDS011;7723;52.170;9.978;2022-12-07T12:35:27;4.73;;;2.37;;
15240;SDS011;7723;52.170;9.978;2022-12-07T12:40:53;1.50;;;1.10;;
15240;SDS011;7723;52.170;9.978;2022-12-07T12:43:40;3.38;;;1.10;;
15240;SDS011;7723;52.170;9.978;2022-12-07T12:49:14;4.40;;;1.88;;
15240;SDS011;7723;52.170;9.978;2022-12-07T12:52:45;4.45;;;2.15;;
15240;SDS011;7723;52.170;9.978;2022-12-07T12:55:13;4.95;;;2.40;;
15240;SDS011;7723;52.170;9.978;2022-12-07T12:57:46;2.03;;;1.70;;
15240;SDS011;7723;52.170;9.978;2022-12-07T13:00:17;4.70;;;2.08;;
15240;SDS011;7723;52.170;9.978;2022-12-07T13:02:49;5.32;;;1.95;;
15240;SDS011;7723;52.170;9.978;2022-12-07T13:05:19;5.13;;;2.50;;
15240;SDS011;7723;52.170;9.978;2022-12-07T13:07:55;6.18;;;3.13;;
15240;SDS011;7723;52.170;9.978;2022-12-07T13:10:31;7.03;;;2.15;;
15240;SDS011;7723;52.170;9.978;2022-12-07T13:16:24;8.30;;;2.30;;
15240;SDS011;7723;52.170;9.978;2022-12-07T13:22:27;10.68;;;2.70;;
15240;SDS011;7723;52.170;9.978;2022-12-07T13:25:18;3.85;;;2.55;;
15240;SDS011;7723;52.170;9.978;2022-12-07T13:27:55;4.60;;;1.73;;
15240;SDS011;7723;52.170;9.978;2022-12-07T13:30:27;6.18;;;1.98;;
15240;SDS011;7723;52.170;9.978;2022-12-07T13:32:57;6.90;;;2.10;;
15240;SDS011;7723;52.170;9.978;2022-12-07T13:35:29;3.75;;;1.75;;
15240;SDS011;7723;52.170;9.978;2022-12-07T13:37:58;4.18;;;2.10;;
15240;SDS011;7723;52.170;9.978;2022-12-07T13:40:28;4.22;;;1.80;;
15240;SDS011;7723;52.170;9.978;2022-12-07T13:42:59;4.40;;;2.03;;
15240;SDS011;7723;52.170;9.978;2022-12-07T13:45:30;9.68;;;2.95;;
15240;SDS011;7723;52.170;9.978;2022-12-07T13:48:19;4.95;;;2.33;;
15240;SDS011;7723;52.170;9.978;2022-12-07T13:50:54;4.43;;;2.25;;
15240;SDS011;7723;52.170;9.978;2022-12-07T13:53:23;3.70;;;2.08;;
15240;SDS011;7723;52.170;9.978;2022-12-07T13:55:54;4.88;;;1.55;;
15240;SDS011;7723;52.170;9.978;2022-12-07T13:58:22;6.40;;;2.50;;
15240;SDS011;7723;52.170;9.978;2022-12-07T14:00:52;4.05;;;2.10;;
15240;SDS011;7723;52.170;9.978;2022-12-07T14:03:23;3.88;;;1.45;;
15240;SDS011;7723;52.170;9.978;2022-12-07T14:06:04;4.43;;;1.48;;
15240;SDS011;7723;52.170;9.978;2022-12-07T14:08:33;5.07;;;1.63;;
15240;SDS011;7723;52.170;9.978;2022-12-07T14:11:02;7.47;;;2.00;;
15240;SDS011;7723;52.170;9.978;2022-12-07T14:13:30;2.55;;;1.70;;
15240;SDS011;7723;52.170;9.978;2022-12-07T14:15:59;5.05;;;1.92;;
15240;SDS011;7723;52.170;9.978;2022-12-07T14:18:28;3.85;;;1.85;;
15240;SDS011;7723;52.170;9.978;2022-12-07T14:21:03;3.58;;;1.90;;
15240;SDS011;7723;52.170;9.978;2022-12-07T14:23:31;4.30;;;2.03;;
15240;SDS011;7723;52.170;9.978;2022-12-07T14:26:07;8.23;;;2.10;;
15240;SDS011;7723;52.170;9.978;2022-12-07T14:28:38;6.33;;;1.93;;
15240;SDS011;7723;52.170;9.978;2022-12-07T14:31:08;9.70;;;2.60;;
15240;SDS011;7723;52.170;9.978;2022-12-07T14:33:38;3.40;;;2.07;;
15240;SDS011;7723;52.170;9.978;2022-12-07T14:36:08;4.27;;;1.80;;
15240;SDS011;7723;52.170;9.978;2022-12-07T14:38:36;3.63;;;1.77;;
15240;SDS011;7723;52.170;9.978;2022-12-07T14:41:03;3.05;;;1.55;;
15240;SDS011;7723;52.170;9.978;2022-12-07T14:43:49;4.40;;;1.77;;
15240;SDS011;7723;52.170;9.978;2022-12-07T14:46:16;3.45;;;1.67;;
15240;SDS011;7723;52.170;9.978;2022-12-07T14:48:43;3.78;;;1.70;;
15240;SDS011;7723;52.170;9.978;2022-12-07T14:51:11;7.05;;;2.42;;
15240;SDS011;7723;52.170;9.978;2022-12-07T14:53:40;5.38;;;1.92;;
15240;SDS011;7723;52.170;9.978;2022-12-07T14:56:09;4.45;;;2.08;;
15240;SDS011;7723;52.170;9.978;2022-12-07T14:58:36;4.20;;;1.60;;
15240;SDS011;7723;52.170;9.978;2022-12-07T15:01:05;5.43;;;1.73;;
15240;SDS011;7723;52.170;9.978;2022-12-07T15:03:32;3.17;;;1.83;;
15240;SDS011;7723;52.170;9.978;2022-12-07T15:06:02;2.83;;;1.50;;
15240;SDS011;7723;52.170;9.978;2022-12-07T15:08:31;2.37;;;1.40;;
15240;SDS011;7723;52.170;9.978;2022-12-07T15:10:59;4.23;;;1.90;;
15240;SDS011;7723;52.170;9.978;2022-12-07T15:13:26;4.63;;;2.40;;
15240;SDS011;7723;52.170;9.978;2022-12-07T15:16:13;6.30;;;1.93;;
15240;SDS011;7723;52.170;9.978;2022-12-07T15:18:42;5.88;;;2.03;;
15240;SDS011;7723;52.170;9.978;2022-12-07T15:21:10;3.50;;;1.50;;
15240;SDS011;7723;52.170;9.978;2022-12-07T15:23:40;5.63;;;1.93;;
15240;SDS011;7723;52.170;9.978;2022-12-07T15:26:09;2.80;;;1.50;;
15240;SDS011;7723;52.170;9.978;2022-12-07T15:28:37;4.63;;;1.57;;